sensor_id;sensor_type;location;lat;lon;timestamp;P1;durP1;ratioP1;P2;durP2;ratioP2
9413;SDS011;4746;35.664;139.738;2023-08-21T00:00:38;1.55;;;0.45;;
9413;SDS011;4746;35.664;139.738;2023-08-21T00:03:05;1.10;;;0.52;;
9413;SDS011;4746;35.664;139.738;2023-08-21T00:05:33;0.85;;;0.43;;
9413;SDS011;4746;35.664;139.738;2023-08-21T00:08:00;2.75;;;0.85;;
9413;SDS011;4746;35.664;139.738;2023-08-21T00:10:29;3.80;;;1.13;;
9413;SDS011;4746;35.664;139.738;2023-08-21T00:13:00;0.82;;;0.82;;
9413;SDS011;4746;35.664;139.738;2023-08-21T00:15:27;0.60;;;0.60;;
9413;SDS011;4746;35.664;139.738;2023-08-21T00:17:55;0.82;;;0.50;;
9413;SDS011;4746;35.664;139.738;2023-08-21T00:20:23;1.30;;;0.85;;
9413;SDS011;4746;35.664;139.738;2023-08-21T00:22:50;2.63;;;0.57;;
9413;SDS011;4746;35.664;139.738;2023-08-21T00:25:18;1.83;;;0.85;;
9413;SDS011;4746;35.664;139.738;2023-08-21T00:27:47;1.95;;;0.80;;
9413;SDS011;4746;35.664;139.738;2023-08-21T00:30:15;1.30;;;0.77;;
9413;SDS011;4746;35.664;139.738;2023-08-21T00:32:43;3.10;;;0.88;;
9413;SDS011;4746;35.664;139.738;2023-08-21T00:35:10;2.25;;;1.10;;
9413;SDS011;4746;35.664;139.738;2023-08-21T00:37:38;0.82;;;0.75;;
9413;SDS011;4746;35.664;139.738;2023-08-21T00:40:06;1.48;;;1.17;;
9413;SDS011;4746;35.664;139.738;2023-08-21T00:42:34;3.08;;;0.93;;
9413;SDS011;4746;35.664;139.738;2023-08-21T00:45:02;1.95;;;0.55;;
9413;SDS011;4746;35.664;139.738;2023-08-21T00:47:30;1.23;;;0.70;;
9413;SDS011;4746;35.664;139.738;2023-08-21T00:49:58;0.70;;;0.70;;
9413;SDS011;4746;35.664;139.738;2023-08-21T00:52:26;1.38;;;1.10;;
9413;SDS011;4746;35.664;139.738;2023-08-21T00:54:54;2.80;;;1.45;;
9413;SDS011;4746;35.664;139.738;2023-08-21T00:57:23;1.88;;;1.63;;
9413;SDS011;4746;35.664;139.738;2023-08-21T00:59:51;3.08;;;1.40;;
9413;SDS011;4746;35.664;139.738;2023-08-21T01:02:20;2.33;;;1.45;;
9413;SDS011;4746;35.664;139.738;2023-08-21T01:04:48;4.45;;;2.35;;
9413;SDS011;4746;35.664;139.738;2023-08-21T01:07:16;2.25;;;2.13;;
9413;SDS011;4746;35.664;139.738;2023-08-21T01:09:50;3.55;;;2.50;;
9413;SDS011;4746;35.664;139.738;2023-08-21T01:12:37;3.20;;;2.90;;
9413;SDS011;4746;35.664;139.738;2023-08-21T01:15:40;3.33;;;3.13;;
9413;SDS011;4746;35.664;139.738;2023-08-21T01:18:10;5.78;;;3.72;;
9413;SDS011;4746;35.664;139.738;2023-08-21T01:20:39;3.95;;;3.53;;
9413;SDS011;4746;35.664;139.738;2023-08-21T01:23:07;3.15;;;2.95;;
9413;SDS011;4746;35.664;139.738;2023-08-21T01:25:35;4.40;;;4.10;;
9413;SDS011;4746;35.664;139.738;2023-08-21T01:28:03;5.15;;;3.90;;
9413;SDS011;4746;35.664;139.738;2023-08-21T01:30:31;9.15;;;3.42;;
9413;SDS011;4746;35.664;139.738;2023-08-21T01:33:05;3.50;;;3.30;;
9413;SDS011;4746;35.664;139.738;2023-08-21T01:35:38;4.45;;;3.28;;
9413;SDS011;4746;35.664;139.738;2023-08-21T01:38:06;4.18;;;3.78;;
9413;SDS011;4746;35.664;139.738;2023-08-21T01:40:34;4.10;;;3.70;;
9413;SDS011;4746;35.664;139.738;2023-08-21T01:43:02;4.88;;;3.50;;
9413;SDS011;4746;35.664;139.738;2023-08-21T01:45:29;4.70;;;2.88;;
9413;SDS011;4746;35.664;139.738;2023-08-21T01:47:57;5.22;;;3.47;;
9413;SDS011;4746;35.664;139.738;2023-08-21T01:50:24;4.10;;;3.70;;
9413;SDS011;4746;35.664;139.738;2023-08-21T01:52:53;4.60;;;4.20;;
9413;SDS011;4746;35.664;139.738;2023-08-21T01:55:20;4.50;;;3.45;;
9413;SDS011;4746;35.664;139.738;2023-08-21T01:57:48;6.20;;;4.43;;
9413;SDS011;4746;35.664;139.738;2023-08-21T02:00:18;4.78;;;4.25;;
9413;SDS011;4746;35.664;139.738;2023-08-21T02:02:46;6.70;;;4.63;;
9413;SDS011;4746;35.664;139.738;2023-08-21T02:05:16;7.50;;;5.32;;
9413;SDS011;4746;35.664;139.738;2023-08-21T02:07:45;12.05;;;5.60;;
9413;SDS011;4746;35.664;139.738;2023-08-21T02:10:12;6.35;;;5.38;;
9413;SDS011;4746;35.664;139.738;2023-08-21T02:12:40;11.10;;;6.50;;
9413;SDS011;4746;35.664;139.738;2023-08-21T02:15:07;5.88;;;4.93;;
9413;SDS011;4746;35.664;139.738;2023-08-21T02:17:36;5.55;;;5.05;;
9413;SDS011;4746;35.664;139.738;2023-08-21T02:20:06;5.72;;;5.18;;
9413;SDS011;4746;35.664;139.738;2023-08-21T02:22:34;5.47;;;5.03;;
9413;SDS011;4746;35.664;139.738;2023-08-21T02:25:04;5.93;;;5.35;;
9413;SDS011;4746;35.664;139.738;2023-08-21T02:27:32;5.80;;;5.07;;
9413;SDS011;4746;35.664;139.738;2023-08-21T02:30:00;6.13;;;5.63;;
9413;SDS011;4746;35.664;139.738;2023-08-21T02:32:28;5.65;;;5.15;;
9413;SDS011;4746;35.664;139.738;2023-08-21T02:34:56;9.77;;;5.90;;
9413;SDS011;4746;35.664;139.738;2023-08-21T02:37:25;9.07;;;6.25;;
9413;SDS011;4746;35.664;139.738;2023-08-21T02:39:53;6.03;;;5.32;;
9413;SDS011;4746;35.664;139.738;2023-08-21T02:42:20;7.03;;;5.53;;
9413;SDS011;4746;35.664;139.738;2023-08-21T02:44:48;6.10;;;5.53;;
9413;SDS011;4746;35.664;139.738;2023-08-21T02:47:16;7.00;;;5.35;;
9413;SDS011;4746;35.664;139.738;2023-08-21T02:49:48;6.10;;;5.40;;
9413;SDS011;4746;35.664;139.738;2023-08-21T02:52:21;6.13;;;5.47;;
9413;SDS011;4746;35.664;139.738;2023-08-21T02:54:52;4.80;;;4.30;;
9413;SDS011;4746;35.664;139.738;2023-08-21T02:57:41;5.05;;;3.60;;
9413;SDS011;4746;35.664;139.738;2023-08-21T03:00:09;3.90;;;3.58;;
9413;SDS011;4746;35.664;139.738;2023-08-21T03:02:38;4.07;;;3.60;;
9413;SDS011;4746;35.664;139.738;2023-08-21T03:05:09;3.38;;;3.08;;
9413;SDS011;4746;35.664;139.738;2023-08-21T03:07:38;3.75;;;3.13;;
9413;SDS011;4746;35.664;139.738;2023-08-21T03:10:06;4.03;;;2.85;;
9413;SDS011;4746;35.664;139.738;2023-08-21T03:12:35;2.53;;;2.30;;
9413;SDS011;4746;35.664;139.738;2023-08-21T03:15:04;6.07;;;4.03;;
9413;SDS011;4746;35.664;139.738;2023-08-21T03:17:32;2.80;;;2.60;;
9413;SDS011;4746;35.664;139.738;2023-08-21T03:20:00;3.60;;;2.63;;
9413;SDS011;4746;35.664;139.738;2023-08-21T03:22:31;6.18;;;2.20;;
9413;SDS011;4746;35.664;139.738;2023-08-21T03:24:59;2.38;;;2.13;;
9413;SDS011;4746;35.664;139.738;2023-08-21T03:27:34;4.72;;;2.30;;
9413;SDS011;4746;35.664;139.738;2023-08-21T03:30:18;3.13;;;2.17;;
9413;SDS011;4746;35.664;139.738;2023-08-21T03:33:01;4.28;;;2.25;;
9413;SDS011;4746;35.664;139.738;2023-08-21T03:35:35;2.42;;;2.08;;
9413;SDS011;4746;35.664;139.738;2023-08-21T03:38:09;3.38;;;2.58;;
9413;SDS011;4746;35.664;139.738;2023-08-21T03:40:48;3.78;;;2.30;;
9413;SDS011;4746;35.664;139.738;2023-08-21T03:43:19;4.32;;;2.20;;
9413;SDS011;4746;35.664;139.738;2023-08-21T03:45:55;2.20;;;1.70;;
9413;SDS011;4746;35.664;139.738;2023-08-21T03:48:28;3.03;;;1.90;;
9413;SDS011;4746;35.664;139.738;2023-08-21T03:51:04;1.90;;;1.65;;
9413;SDS011;4746;35.664;139.738;2023-08-21T03:53:36;3.42;;;1.88;;
9413;SDS011;4746;35.664;139.738;2023-08-21T03:56:07;2.30;;;1.75;;
9413;SDS011;4746;35.664;139.738;2023-08-21T03:58:35;1.95;;;1.85;;
9413;SDS011;4746;35.664;139.738;2023-08-21T04:01:06;3.42;;;2.58;;
9413;SDS011;4746;35.664;139.738;2023-08-21T04:03:37;2.00;;;1.90;;
9413;SDS011;4746;35.664;139.738;2023-08-21T04:06:08;2.30;;;1.60;;
9413;SDS011;4746;35.664;139.738;2023-08-21T04:08:35;2.47;;;1.80;;
9413;SDS011;4746;35.664;139.738;2023-08-21T04:11:04;4.10;;;1.60;;
9413;SDS011;4746;35.664;139.738;2023-08-21T04:13:32;1.65;;;1.48;;
9413;SDS011;4746;35.664;139.738;2023-08-21T04:16:02;2.58;;;1.55;;
9413;SDS011;4746;35.664;139.738;2023-08-21T04:18:30;2.53;;;1.60;;
9413;SDS011;4746;35.664;139.738;2023-08-21T04:20:58;4.50;;;1.77;;
9413;SDS011;4746;35.664;139.738;2023-08-21T04:23:25;6.88;;;2.53;;
9413;SDS011;4746;35.664;139.738;2023-08-21T04:25:53;1.60;;;1.33;;
9413;SDS011;4746;35.664;139.738;2023-08-21T04:28:27;2.17;;;1.77;;
9413;SDS011;4746;35.664;139.738;2023-08-21T04:30:59;6.60;;;2.08;;
9413;SDS011;4746;35.664;139.738;2023-08-21T04:33:31;5.90;;;1.60;;
9413;SDS011;4746;35.664;139.738;2023-08-21T04:36:00;2.67;;;1.30;;
9413;SDS011;4746;35.664;139.738;2023-08-21T04:38:28;4.15;;;1.27;;
9413;SDS011;4746;35.664;139.738;2023-08-21T04:40:59;4.68;;;2.00;;
9413;SDS011;4746;35.664;139.738;2023-08-21T04:43:33;4.20;;;1.27;;
9413;SDS011;4746;35.664;139.738;2023-08-21T04:46:04;3.65;;;0.95;;
9413;SDS011;4746;35.664;139.738;2023-08-21T04:48:32;3.60;;;1.20;;
9413;SDS011;4746;35.664;139.738;2023-08-21T04:51:00;4.03;;;1.30;;
9413;SDS011;4746;35.664;139.738;2023-08-21T04:53:28;2.25;;;0.82;;
9413;SDS011;4746;35.664;139.738;2023-08-21T04:55:58;4.32;;;1.10;;
9413;SDS011;4746;35.664;139.738;2023-08-21T04:58:26;4.97;;;1.35;;
9413;SDS011;4746;35.664;139.738;2023-08-21T05:00:53;6.90;;;1.42;;
9413;SDS011;4746;35.664;139.738;2023-08-21T05:03:23;4.45;;;1.58;;
9413;SDS011;4746;35.664;139.738;2023-08-21T05:05:56;3.22;;;0.80;;
9413;SDS011;4746;35.664;139.738;2023-08-21T05:08:27;4.55;;;1.50;;
9413;SDS011;4746;35.664;139.738;2023-08-21T05:10:56;4.15;;;1.08;;
9413;SDS011;4746;35.664;139.738;2023-08-21T05:13:25;2.95;;;0.75;;
9413;SDS011;4746;35.664;139.738;2023-08-21T05:15:54;4.35;;;1.17;;
9413;SDS011;4746;35.664;139.738;2023-08-21T05:18:23;3.83;;;1.10;;
9413;SDS011;4746;35.664;139.738;2023-08-21T05:20:53;3.85;;;1.48;;
9413;SDS011;4746;35.664;139.738;2023-08-21T05:23:22;6.95;;;1.15;;
9413;SDS011;4746;35.664;139.738;2023-08-21T05:25:50;3.88;;;1.35;;
9413;SDS011;4746;35.664;139.738;2023-08-21T05:28:20;5.97;;;0.88;;
9413;SDS011;4746;35.664;139.738;2023-08-21T05:30:50;3.20;;;1.13;;
9413;SDS011;4746;35.664;139.738;2023-08-21T05:33:18;3.38;;;1.25;;
9413;SDS011;4746;35.664;139.738;2023-08-21T05:35:45;1.13;;;0.63;;
9413;SDS011;4746;35.664;139.738;2023-08-21T05:38:13;2.22;;;0.68;;
9413;SDS011;4746;35.664;139.738;2023-08-21T05:40:41;3.13;;;0.90;;
9413;SDS011;4746;35.664;139.738;2023-08-21T05:43:09;4.60;;;1.30;;
9413;SDS011;4746;35.664;139.738;2023-08-21T05:45:36;1.50;;;0.70;;
9413;SDS011;4746;35.664;139.738;2023-08-21T05:48:07;4.10;;;1.00;;
9413;SDS011;4746;35.664;139.738;2023-08-21T05:50:38;2.40;;;1.02;;
9413;SDS011;4746;35.664;139.738;2023-08-21T05:53:12;1.30;;;0.50;;
9413;SDS011;4746;35.664;139.738;2023-08-21T05:55:52;1.52;;;0.90;;
9413;SDS011;4746;35.664;139.738;2023-08-21T05:58:20;1.95;;;0.80;;
9413;SDS011;4746;35.664;139.738;2023-08-21T06:00:48;2.95;;;0.77;;
9413;SDS011;4746;35.664;139.738;2023-08-21T06:03:18;1.58;;;0.75;;
9413;SDS011;4746;35.664;139.738;2023-08-21T06:05:55;3.05;;;1.08;;
9413;SDS011;4746;35.664;139.738;2023-08-21T06:08:22;2.67;;;0.77;;
9413;SDS011;4746;35.664;139.738;2023-08-21T06:10:51;1.23;;;0.50;;
9413;SDS011;4746;35.664;139.738;2023-08-21T06:13:19;2.28;;;0.70;;
9413;SDS011;4746;35.664;139.738;2023-08-21T06:15:48;3.60;;;1.40;;
9413;SDS011;4746;35.664;139.738;2023-08-21T06:18:18;1.60;;;0.70;;
9413;SDS011;4746;35.664;139.738;2023-08-21T06:20:46;1.67;;;0.70;;
9413;SDS011;4746;35.664;139.738;2023-08-21T06:23:19;1.33;;;0.60;;
9413;SDS011;4746;35.664;139.738;2023-08-21T06:25:48;0.95;;;0.60;;
9413;SDS011;4746;35.664;139.738;2023-08-21T06:28:16;1.45;;;0.55;;
9413;SDS011;4746;35.664;139.738;2023-08-21T06:30:47;3.20;;;0.82;;
9413;SDS011;4746;35.664;139.738;2023-08-21T06:33:24;1.98;;;0.77;;
9413;SDS011;4746;35.664;139.738;2023-08-21T06:35:51;2.58;;;0.80;;
9413;SDS011;4746;35.664;139.738;2023-08-21T06:38:19;4.25;;;1.10;;
9413;SDS011;4746;35.664;139.738;2023-08-21T06:40:47;3.70;;;1.08;;
9413;SDS011;4746;35.664;139.738;2023-08-21T06:43:16;1.90;;;0.80;;
9413;SDS011;4746;35.664;139.738;2023-08-21T06:45:44;2.42;;;0.75;;
9413;SDS011;4746;35.664;139.738;2023-08-21T06:48:11;2.25;;;0.80;;
9413;SDS011;4746;35.664;139.738;2023-08-21T06:50:39;5.13;;;1.17;;
9413;SDS011;4746;35.664;139.738;2023-08-21T06:53:07;5.57;;;1.45;;
9413;SDS011;4746;35.664;139.738;2023-08-21T06:55:34;4.47;;;1.00;;
9413;SDS011;4746;35.664;139.738;2023-08-21T06:58:02;3.55;;;1.00;;
9413;SDS011;4746;35.664;139.738;2023-08-21T07:00:29;5.07;;;1.27;;
9413;SDS011;4746;35.664;139.738;2023-08-21T07:02:59;1.73;;;0.82;;
9413;SDS011;4746;35.664;139.738;2023-08-21T07:05:28;2.50;;;0.70;;
9413;SDS011;4746;35.664;139.738;2023-08-21T07:07:56;1.48;;;0.88;;
9413;SDS011;4746;35.664;139.738;2023-08-21T07:10:24;2.72;;;1.23;;
9413;SDS011;4746;35.664;139.738;2023-08-21T07:12:55;2.45;;;1.10;;
9413;SDS011;4746;35.664;139.738;2023-08-21T07:15:25;4.93;;;1.08;;
9413;SDS011;4746;35.664;139.738;2023-08-21T07:17:53;2.97;;;0.77;;
9413;SDS011;4746;35.664;139.738;2023-08-21T07:20:21;1.58;;;0.85;;
9413;SDS011;4746;35.664;139.738;2023-08-21T07:22:49;2.58;;;0.60;;
9413;SDS011;4746;35.664;139.738;2023-08-21T07:25:17;2.88;;;0.90;;
9413;SDS011;4746;35.664;139.738;2023-08-21T07:27:44;2.70;;;0.90;;
9413;SDS011;4746;35.664;139.738;2023-08-21T07:30:12;3.95;;;1.95;;
9413;SDS011;4746;35.664;139.738;2023-08-21T07:32:43;4.47;;;1.20;;
9413;SDS011;4746;35.664;139.738;2023-08-21T07:35:11;2.17;;;0.90;;
9413;SDS011;4746;35.664;139.738;2023-08-21T07:37:39;2.78;;;0.75;;
9413;SDS011;4746;35.664;139.738;2023-08-21T07:40:14;1.45;;;0.80;;
9413;SDS011;4746;35.664;139.738;2023-08-21T07:42:42;3.63;;;1.38;;
9413;SDS011;4746;35.664;139.738;2023-08-21T07:45:15;1.77;;;0.80;;
9413;SDS011;4746;35.664;139.738;2023-08-21T07:48:36;2.05;;;0.80;;
9413;SDS011;4746;35.664;139.738;2023-08-21T07:51:09;1.60;;;0.80;;
9413;SDS011;4746;35.664;139.738;2023-08-21T07:54:00;1.80;;;0.70;;
9413;SDS011;4746;35.664;139.738;2023-08-21T07:56:46;3.30;;;1.00;;
9413;SDS011;4746;35.664;139.738;2023-08-21T07:59:44;1.02;;;0.60;;
9413;SDS011;4746;35.664;139.738;2023-08-21T08:02:12;2.97;;;0.95;;
9413;SDS011;4746;35.664;139.738;2023-08-21T08:04:40;4.25;;;0.80;;
9413;SDS011;4746;35.664;139.738;2023-08-21T08:07:52;4.18;;;0.90;;
9413;SDS011;4746;35.664;139.738;2023-08-21T08:10:39;1.60;;;0.70;;
9413;SDS011;4746;35.664;139.738;2023-08-21T08:13:45;2.67;;;0.60;;
9413;SDS011;4746;35.664;139.738;2023-08-21T08:16:12;1.20;;;0.50;;
9413;SDS011;4746;35.664;139.738;2023-08-21T08:18:42;2.00;;;0.55;;
9413;SDS011;4746;35.664;139.738;2023-08-21T08:21:09;2.38;;;0.60;;
9413;SDS011;4746;35.664;139.738;2023-08-21T08:23:37;1.15;;;0.47;;
9413;SDS011;4746;35.664;139.738;2023-08-21T08:26:08;1.95;;;0.60;;
9413;SDS011;4746;35.664;139.738;2023-08-21T08:28:35;2.10;;;1.15;;
9413;SDS011;4746;35.664;139.738;2023-08-21T08:31:04;3.80;;;0.85;;
9413;SDS011;4746;35.664;139.738;2023-08-21T08:33:32;2.42;;;0.98;;
9413;SDS011;4746;35.664;139.738;2023-08-21T08:35:59;2.97;;;0.82;;
9413;SDS011;4746;35.664;139.738;2023-08-21T08:38:27;1.35;;;0.65;;
9413;SDS011;4746;35.664;139.738;2023-08-21T08:40:54;1.67;;;1.00;;
9413;SDS011;4746;35.664;139.738;2023-08-21T08:43:24;2.83;;;1.08;;
9413;SDS011;4746;35.664;139.738;2023-08-21T08:45:54;7.70;;;3.47;;
9413;SDS011;4746;35.664;139.738;2023-08-21T08:48:27;3.13;;;1.23;;
9413;SDS011;4746;35.664;139.738;2023-08-21T08:50:55;1.33;;;0.85;;
9413;SDS011;4746;35.664;139.738;2023-08-21T08:53:25;1.38;;;0.63;;
9413;SDS011;4746;35.664;139.738;2023-08-21T08:55:54;3.35;;;0.85;;
9413;SDS011;4746;35.664;139.738;2023-08-21T08:58:23;3.60;;;1.20;;
9413;SDS011;4746;35.664;139.738;2023-08-21T09:00:51;2.97;;;0.98;;
9413;SDS011;4746;35.664;139.738;2023-08-21T09:03:18;2.22;;;0.90;;
9413;SDS011;4746;35.664;139.738;2023-08-21T09:05:46;2.83;;;0.70;;
9413;SDS011;4746;35.664;139.738;2023-08-21T09:08:15;1.63;;;0.80;;
9413;SDS011;4746;35.664;139.738;2023-08-21T09:10:43;2.13;;;0.82;;
9413;SDS011;4746;35.664;139.738;2023-08-21T09:13:14;2.60;;;0.80;;
9413;SDS011;4746;35.664;139.738;2023-08-21T09:15:48;2.58;;;0.85;;
9413;SDS011;4746;35.664;139.738;2023-08-21T09:18:23;4.05;;;0.80;;
9413;SDS011;4746;35.664;139.738;2023-08-21T09:20:55;3.65;;;0.90;;
9413;SDS011;4746;35.664;139.738;2023-08-21T09:23:22;2.65;;;0.70;;
9413;SDS011;4746;35.664;139.738;2023-08-21T09:25:55;2.17;;;0.82;;
9413;SDS011;4746;35.664;139.738;2023-08-21T09:28:22;3.00;;;1.20;;
9413;SDS011;4746;35.664;139.738;2023-08-21T09:30:52;2.15;;;1.00;;
9413;SDS011;4746;35.664;139.738;2023-08-21T09:33:21;1.45;;;0.80;;
9413;SDS011;4746;35.664;139.738;2023-08-21T09:35:54;2.95;;;1.02;;
9413;SDS011;4746;35.664;139.738;2023-08-21T09:38:30;6.15;;;1.27;;
9413;SDS011;4746;35.664;139.738;2023-08-21T09:41:04;1.70;;;0.80;;
9413;SDS011;4746;35.664;139.738;2023-08-21T09:43:37;3.08;;;1.05;;
9413;SDS011;4746;35.664;139.738;2023-08-21T09:46:13;5.22;;;1.52;;
9413;SDS011;4746;35.664;139.738;2023-08-21T09:48:52;2.53;;;0.93;;
9413;SDS011;4746;35.664;139.738;2023-08-21T09:51:20;2.40;;;1.10;;
9413;SDS011;4746;35.664;139.738;2023-08-21T09:53:48;1.30;;;0.80;;
9413;SDS011;4746;35.664;139.738;2023-08-21T09:56:19;2.65;;;1.00;;
9413;SDS011;4746;35.664;139.738;2023-08-21T09:58:50;3.00;;;1.30;;
9413;SDS011;4746;35.664;139.738;2023-08-21T10:01:18;5.05;;;1.17;;
9413;SDS011;4746;35.664;139.738;2023-08-21T10:03:48;3.53;;;1.42;;
9413;SDS011;4746;35.664;139.738;2023-08-21T10:06:21;2.33;;;1.33;;
9413;SDS011;4746;35.664;139.738;2023-08-21T10:08:53;1.60;;;1.17;;
9413;SDS011;4746;35.664;139.738;2023-08-21T10:11:22;5.40;;;1.20;;
9413;SDS011;4746;35.664;139.738;2023-08-21T10:13:50;3.35;;;1.00;;
9413;SDS011;4746;35.664;139.738;2023-08-21T10:16:20;2.47;;;1.10;;
9413;SDS011;4746;35.664;139.738;2023-08-21T10:18:48;3.42;;;1.23;;
9413;SDS011;4746;35.664;139.738;2023-08-21T10:21:18;4.43;;;1.42;;
9413;SDS011;4746;35.664;139.738;2023-08-21T10:23:54;2.83;;;1.17;;
9413;SDS011;4746;35.664;139.738;2023-08-21T10:26:23;3.55;;;1.20;;
9413;SDS011;4746;35.664;139.738;2023-08-21T10:28:54;3.97;;;1.30;;
9413;SDS011;4746;35.664;139.738;2023-08-21T10:31:36;2.40;;;0.90;;
9413;SDS011;4746;35.664;139.738;2023-08-21T10:34:12;2.78;;;1.40;;
9413;SDS011;4746;35.664;139.738;2023-08-21T10:40:08;3.20;;;1.23;;
9413;SDS011;4746;35.664;139.738;2023-08-21T10:42:52;2.63;;;1.50;;
9413;SDS011;4746;35.664;139.738;2023-08-21T10:49:47;3.35;;;1.52;;
9413;SDS011;4746;35.664;139.738;2023-08-21T10:52:45;3.03;;;1.33;;
9413;SDS011;4746;35.664;139.738;2023-08-21T10:55:28;2.97;;;1.20;;
9413;SDS011;4746;35.664;139.738;2023-08-21T10:58:46;3.22;;;1.30;;
9413;SDS011;4746;35.664;139.738;2023-08-21T11:10:40;5.95;;;1.52;;
9413;SDS011;4746;35.664;139.738;2023-08-21T11:16:06;2.72;;;0.95;;
9413;SDS011;4746;35.664;139.738;2023-08-21T11:18:41;4.43;;;1.10;;
9413;SDS011;4746;35.664;139.738;2023-08-21T11:21:35;4.80;;;1.30;;
9413;SDS011;4746;35.664;139.738;2023-08-21T11:27:15;4.10;;;1.70;;
9413;SDS011;4746;35.664;139.738;2023-08-21T11:29:45;6.07;;;1.38;;
9413;SDS011;4746;35.664;139.738;2023-08-21T11:32:18;2.70;;;1.00;;
9413;SDS011;4746;35.664;139.738;2023-08-21T11:34:56;2.67;;;1.05;;
9413;SDS011;4746;35.664;139.738;2023-08-21T11:37:25;2.25;;;1.00;;
9413;SDS011;4746;35.664;139.738;2023-08-21T11:39:54;3.35;;;1.10;;
9413;SDS011;4746;35.664;139.738;2023-08-21T11:42:30;5.82;;;1.42;;
9413;SDS011;4746;35.664;139.738;2023-08-21T11:45:00;2.75;;;1.10;;
9413;SDS011;4746;35.664;139.738;2023-08-21T11:47:32;4.07;;;1.30;;
9413;SDS011;4746;35.664;139.738;2023-08-21T11:50:05;2.60;;;1.50;;
9413;SDS011;4746;35.664;139.738;2023-08-21T11:52:38;2.38;;;1.23;;
9413;SDS011;4746;35.664;139.738;2023-08-21T11:55:07;4.10;;;1.33;;
9413;SDS011;4746;35.664;139.738;2023-08-21T11:57:50;2.53;;;1.20;;
9413;SDS011;4746;35.664;139.738;2023-08-21T12:00:28;3.33;;;1.20;;
9413;SDS011;4746;35.664;139.738;2023-08-21T12:03:00;4.40;;;1.20;;
9413;SDS011;4746;35.664;139.738;2023-08-21T12:05:32;1.80;;;1.05;;
9413;SDS011;4746;35.664;139.738;2023-08-21T12:08:02;4.07;;;1.60;;
9413;SDS011;4746;35.664;139.738;2023-08-21T12:10:30;4.05;;;1.08;;
9413;SDS011;4746;35.664;139.738;2023-08-21T12:12:58;4.97;;;1.83;;
9413;SDS011;4746;35.664;139.738;2023-08-21T12:15:25;3.65;;;1.15;;
9413;SDS011;4746;35.664;139.738;2023-08-21T12:17:53;4.75;;;1.17;;
9413;SDS011;4746;35.664;139.738;2023-08-21T12:20:21;3.22;;;1.15;;
9413;SDS011;4746;35.664;139.738;2023-08-21T12:22:48;4.57;;;1.35;;
9413;SDS011;4746;35.664;139.738;2023-08-21T12:25:16;4.65;;;1.20;;
9413;SDS011;4746;35.664;139.738;2023-08-21T12:27:44;4.43;;;1.40;;
9413;SDS011;4746;35.664;139.738;2023-08-21T12:30:12;2.25;;;1.33;;
9413;SDS011;4746;35.664;139.738;2023-08-21T12:32:39;4.70;;;1.50;;
9413;SDS011;4746;35.664;139.738;2023-08-21T12:35:07;2.67;;;1.05;;
9413;SDS011;4746;35.664;139.738;2023-08-21T12:37:37;2.70;;;1.20;;
9413;SDS011;4746;35.664;139.738;2023-08-21T12:40:05;3.30;;;1.45;;
9413;SDS011;4746;35.664;139.738;2023-08-21T12:42:34;2.70;;;1.10;;
9413;SDS011;4746;35.664;139.738;2023-08-21T12:45:02;6.22;;;1.45;;
9413;SDS011;4746;35.664;139.738;2023-08-21T12:47:30;3.28;;;1.00;;
9413;SDS011;4746;35.664;139.738;2023-08-21T12:49:58;2.20;;;1.08;;
9413;SDS011;4746;35.664;139.738;2023-08-21T12:52:26;3.33;;;1.63;;
9413;SDS011;4746;35.664;139.738;2023-08-21T12:54:56;4.13;;;1.33;;
9413;SDS011;4746;35.664;139.738;2023-08-21T12:57:24;2.80;;;1.13;;
9413;SDS011;4746;35.664;139.738;2023-08-21T12:59:54;4.80;;;1.20;;
9413;SDS011;4746;35.664;139.738;2023-08-21T13:02:22;2.95;;;1.35;;
9413;SDS011;4746;35.664;139.738;2023-08-21T13:04:49;3.75;;;1.13;;
9413;SDS011;4746;35.664;139.738;2023-08-21T13:07:17;3.55;;;1.20;;
9413;SDS011;4746;35.664;139.738;2023-08-21T13:09:45;5.55;;;1.52;;
9413;SDS011;4746;35.664;139.738;2023-08-21T13:12:13;6.38;;;1.48;;
9413;SDS011;4746;35.664;139.738;2023-08-21T13:14:42;4.30;;;1.10;;
9413;SDS011;4746;35.664;139.738;2023-08-21T13:17:11;3.85;;;1.55;;
9413;SDS011;4746;35.664;139.738;2023-08-21T13:19:39;3.63;;;1.50;;
9413;SDS011;4746;35.664;139.738;2023-08-21T13:22:06;2.00;;;1.05;;
9413;SDS011;4746;35.664;139.738;2023-08-21T13:24:34;2.97;;;1.30;;
9413;SDS011;4746;35.664;139.738;2023-08-21T13:27:01;3.60;;;1.48;;
9413;SDS011;4746;35.664;139.738;2023-08-21T13:29:29;2.22;;;1.38;;
9413;SDS011;4746;35.664;139.738;2023-08-21T13:31:56;3.15;;;1.42;;
9413;SDS011;4746;35.664;139.738;2023-08-21T13:34:24;4.55;;;1.67;;
9413;SDS011;4746;35.664;139.738;2023-08-21T13:36:51;3.60;;;1.52;;
9413;SDS011;4746;35.664;139.738;2023-08-21T13:39:19;4.03;;;1.73;;
9413;SDS011;4746;35.664;139.738;2023-08-21T13:41:48;4.00;;;1.85;;
9413;SDS011;4746;35.664;139.738;2023-08-21T13:44:16;3.53;;;1.35;;
9413;SDS011;4746;35.664;139.738;2023-08-21T13:46:43;4.07;;;1.77;;
9413;SDS011;4746;35.664;139.738;2023-08-21T13:49:11;4.00;;;1.58;;
9413;SDS011;4746;35.664;139.738;2023-08-21T13:51:39;2.17;;;1.30;;
9413;SDS011;4746;35.664;139.738;2023-08-21T13:57:47;4.07;;;1.30;;
9413;SDS011;4746;35.664;139.738;2023-08-21T14:00:15;3.38;;;1.67;;
9413;SDS011;4746;35.664;139.738;2023-08-21T14:02:43;2.78;;;1.08;;
9413;SDS011;4746;35.664;139.738;2023-08-21T14:05:11;2.22;;;1.00;;
9413;SDS011;4746;35.664;139.738;2023-08-21T14:07:39;5.95;;;1.52;;
9413;SDS011;4746;35.664;139.738;2023-08-21T14:10:07;5.70;;;1.63;;
9413;SDS011;4746;35.664;139.738;2023-08-21T14:12:35;4.10;;;1.60;;
9413;SDS011;4746;35.664;139.738;2023-08-21T14:15:03;4.75;;;1.42;;
9413;SDS011;4746;35.664;139.738;2023-08-21T14:17:32;2.08;;;1.10;;
9413;SDS011;4746;35.664;139.738;2023-08-21T14:19:59;4.55;;;1.55;;
9413;SDS011;4746;35.664;139.738;2023-08-21T14:22:28;4.13;;;1.75;;
9413;SDS011;4746;35.664;139.738;2023-08-21T14:24:57;4.63;;;1.60;;
9413;SDS011;4746;35.664;139.738;2023-08-21T14:27:24;5.95;;;1.98;;
9413;SDS011;4746;35.664;139.738;2023-08-21T14:29:52;3.50;;;1.67;;
9413;SDS011;4746;35.664;139.738;2023-08-21T14:32:20;4.43;;;2.10;;
9413;SDS011;4746;35.664;139.738;2023-08-21T14:34:48;3.53;;;2.00;;
9413;SDS011;4746;35.664;139.738;2023-08-21T14:37:21;3.22;;;2.13;;
9413;SDS011;4746;35.664;139.738;2023-08-21T14:39:49;3.97;;;3.33;;
9413;SDS011;4746;35.664;139.738;2023-08-21T14:42:17;3.53;;;2.53;;
9413;SDS011;4746;35.664;139.738;2023-08-21T14:44:44;4.53;;;2.22;;
9413;SDS011;4746;35.664;139.738;2023-08-21T14:47:12;3.88;;;2.70;;
9413;SDS011;4746;35.664;139.738;2023-08-21T14:49:39;3.60;;;2.40;;
9413;SDS011;4746;35.664;139.738;2023-08-21T14:52:07;4.32;;;2.83;;
9413;SDS011;4746;35.664;139.738;2023-08-21T14:54:34;6.88;;;2.95;;
9413;SDS011;4746;35.664;139.738;2023-08-21T14:57:02;4.10;;;2.80;;
9413;SDS011;4746;35.664;139.738;2023-08-21T14:59:30;2.75;;;2.45;;
9413;SDS011;4746;35.664;139.738;2023-08-21T15:01:58;7.50;;;3.03;;
9413;SDS011;4746;35.664;139.738;2023-08-21T15:04:25;4.57;;;2.60;;
9413;SDS011;4746;35.664;139.738;2023-08-21T15:06:53;4.78;;;1.95;;
9413;SDS011;4746;35.664;139.738;2023-08-21T15:09:20;6.50;;;2.50;;
9413;SDS011;4746;35.664;139.738;2023-08-21T15:11:48;5.32;;;2.20;;
9413;SDS011;4746;35.664;139.738;2023-08-21T15:14:15;5.32;;;1.83;;
9413;SDS011;4746;35.664;139.738;2023-08-21T15:16:43;5.68;;;1.92;;
9413;SDS011;4746;35.664;139.738;2023-08-21T15:19:10;4.85;;;2.28;;
9413;SDS011;4746;35.664;139.738;2023-08-21T15:21:38;3.47;;;2.25;;
9413;SDS011;4746;35.664;139.738;2023-08-21T15:24:06;5.60;;;2.50;;
9413;SDS011;4746;35.664;139.738;2023-08-21T15:26:34;4.22;;;2.00;;
9413;SDS011;4746;35.664;139.738;2023-08-21T15:29:01;3.85;;;2.55;;
9413;SDS011;4746;35.664;139.738;2023-08-21T15:31:29;6.05;;;2.70;;
9413;SDS011;4746;35.664;139.738;2023-08-21T15:33:56;5.07;;;2.33;;